createdAt,value
2018-06-21T00:00:53.994Z,78.39
2018-06-21T00:03:21.114Z,79.12
2018-06-21T00:05:48.288Z,78.62
2018-06-21T00:08:15.437Z,77.95
2018-06-21T00:10:42.521Z,78.45
2018-06-21T00:13:09.744Z,78.30
2018-06-21T00:15:36.837Z,78.14
2018-06-21T00:18:04.169Z,79.10
2018-06-21T00:20:31.320Z,80.69
2018-06-21T00:22:58.460Z,81.46
2018-06-21T00:25:25.557Z,80.30
2018-06-21T00:27:52.709Z,81.42
2018-06-21T00:30:19.819Z,81.22
2018-06-21T00:32:46.981Z,80.28
2018-06-21T00:35:14.128Z,79.68
2018-06-21T00:37:41.364Z,78.92
2018-06-21T00:40:08.460Z,80.02
2018-06-21T00:42:35.620Z,79.55
2018-06-21T00:45:03.172Z,78.92
2018-06-21T00:47:30.289Z,78.51
2018-06-21T00:49:57.430Z,78.52
2018-06-21T00:52:24.600Z,79.36
2018-06-21T00:54:51.787Z,79.07
2018-06-21T00:57:18.908Z,78.74
2018-06-21T00:59:46.068Z,79.88
2018-06-21T01:02:13.234Z,80.68
2018-06-21T01:04:40.376Z,79.71
2018-06-21T01:07:07.521Z,79.00
2018-06-21T01:09:34.700Z,80.21
2018-06-21T01:12:01.848Z,80.25
2018-06-21T01:14:28.991Z,79.00
2018-06-21T01:16:56.177Z,79.92
2018-06-21T01:19:23.374Z,79.43
2018-06-21T01:21:50.541Z,79.29
2018-06-21T01:24:17.735Z,81.32
2018-06-21T01:26:44.885Z,81.83
2018-06-21T01:29:12.096Z,81.67
2018-06-21T01:31:39.242Z,82.66
2018-06-21T01:34:13.231Z,82.23
2018-06-21T01:36:40.381Z,82.29
2018-06-21T01:39:08.388Z,83.37
2018-06-21T01:41:35.561Z,83.05
2018-06-21T01:44:02.735Z,82.35
2018-06-21T01:46:29.907Z,82.04
2018-06-21T01:48:57.043Z,82.29
2018-06-21T01:51:24.122Z,81.52
2018-06-21T01:53:51.345Z,80.65
2018-06-21T01:56:18.545Z,80.62
2018-06-21T01:58:45.930Z,81.77
2018-06-21T02:01:13.136Z,82.27
2018-06-21T02:03:40.248Z,83.25
2018-06-21T02:06:07.453Z,82.63
2018-06-21T02:08:34.573Z,81.61
2018-06-21T02:11:01.723Z,80.99
2018-06-21T02:13:28.837Z,81.41
2018-06-21T02:15:55.991Z,81.52
2018-06-21T02:18:23.160Z,82.57
2018-06-21T02:20:50.304Z,82.93
2018-06-21T02:23:17.841Z,83.65
2018-06-21T02:25:44.973Z,85.79
2018-06-21T02:28:12.116Z,84.94
2018-06-21T02:30:39.272Z,84.33
2018-06-21T02:33:06.433Z,83.99
2018-06-21T02:35:33.572Z,83.14
2018-06-21T02:38:00.697Z,82.99
2018-06-21T02:40:27.813Z,83.73
2018-06-21T02:42:54.980Z,83.67
2018-06-21T02:45:22.139Z,82.54
2018-06-21T02:47:49.278Z,82.26
2018-06-21T02:50:16.469Z,83.36
2018-06-21T02:52:43.680Z,82.35
2018-06-21T02:55:10.809Z,82.67
2018-06-21T02:57:38.018Z,84.34
2018-06-21T03:00:05.351Z,84.60
2018-06-21T03:02:32.493Z,84.84
2018-06-21T03:04:59.608Z,84.66
2018-06-21T03:07:26.753Z,83.89
2018-06-21T03:09:53.911Z,82.44
2018-06-21T03:12:21.081Z,81.92
2018-06-21T03:14:48.284Z,81.20
2018-06-21T03:17:15.413Z,82.96
2018-06-21T03:19:42.603Z,84.54
2018-06-21T03:22:10.152Z,83.41
2018-06-21T03:24:37.105Z,83.20
2018-06-21T03:27:04.284Z,81.88
2018-06-21T03:29:31.400Z,81.06
2018-06-21T03:31:58.518Z,81.43
2018-06-21T03:34:25.847Z,81.86
2018-06-21T03:36:52.988Z,83.98
2018-06-21T03:39:20.108Z,82.57
2018-06-21T03:41:47.217Z,83.08
2018-06-21T03:44:14.392Z,83.55
2018-06-21T03:46:41.660Z,83.80
2018-06-21T03:49:08.791Z,82.55
2018-06-21T03:51:35.891Z,81.57
2018-06-21T03:54:03.062Z,80.98
2018-06-21T03:56:30.254Z,81.32
2018-06-21T03:58:57.411Z,80.85
2018-06-21T04:01:24.580Z,81.04
2018-06-21T04:03:51.680Z,80.53
2018-06-21T04:06:18.829Z,81.74
2018-06-21T04:08:45.959Z,81.12
2018-06-21T04:11:13.157Z,83.05
2018-06-21T04:13:41.692Z,82.82
2018-06-21T04:16:08.841Z,82.49
2018-06-21T04:18:36.949Z,80.69
2018-06-21T04:21:04.976Z,81.05
2018-06-21T04:23:32.360Z,80.98
2018-06-21T04:25:59.920Z,80.77
2018-06-21T04:28:27.093Z,81.06
2018-06-21T04:30:54.257Z,80.08
2018-06-21T04:33:21.428Z,80.31
2018-06-21T04:35:49.060Z,81.47
2018-06-21T04:38:16.211Z,81.81
2018-06-21T04:40:43.405Z,81.92
2018-06-21T04:43:10.531Z,81.14
2018-06-21T04:45:37.804Z,81.01
2018-06-21T04:48:04.925Z,79.41
2018-06-21T04:50:32.038Z,79.44
2018-06-21T04:52:59.193Z,79.90
2018-06-21T04:55:26.345Z,80.02
2018-06-21T04:57:53.527Z,78.64
2018-06-21T05:00:20.656Z,78.39
2018-06-21T05:02:47.856Z,78.37
2018-06-21T05:05:15.048Z,78.26
2018-06-21T05:07:42.133Z,77.88
2018-06-21T05:10:09.268Z,77.15
2018-06-21T05:12:36.397Z,74.45
2018-06-21T05:15:03.770Z,73.82
2018-06-21T05:17:30.890Z,72.36
2018-06-21T05:19:58.043Z,72.25
2018-06-21T05:22:25.211Z,71.70
2018-06-21T05:24:52.423Z,72.21
2018-06-21T05:27:19.542Z,71.64
2018-06-21T05:29:46.730Z,71.66
2018-06-21T05:32:13.857Z,71.14
2018-06-21T05:34:40.984Z,70.94
2018-06-21T05:37:08.094Z,70.97
2018-06-21T05:39:35.197Z,70.89
2018-06-21T05:42:02.293Z,71.53
2018-06-21T05:44:29.447Z,69.97
2018-06-21T05:46:56.611Z,69.67
2018-06-21T05:49:23.736Z,67.87
2018-06-21T05:51:50.853Z,68.28
2018-06-21T05:54:17.957Z,66.99
2018-06-21T05:56:45.153Z,66.35
2018-06-21T05:59:12.268Z,66.14
2018-06-21T06:01:39.421Z,65.45
2018-06-21T06:04:06.697Z,64.51
2018-06-21T06:06:33.879Z,64.34
2018-06-21T06:09:01.068Z,63.83
2018-06-21T06:11:30.636Z,63.03
2018-06-21T06:13:57.761Z,63.09
2018-06-21T06:16:24.868Z,63.05
2018-06-21T06:18:51.961Z,63.59
2018-06-21T06:21:19.155Z,63.62
2018-06-21T06:23:46.352Z,63.39
2018-06-21T06:26:13.529Z,61.85
2018-06-21T06:28:40.687Z,61.80
2018-06-21T06:31:07.828Z,60.62
2018-06-21T06:33:34.973Z,62.13
2018-06-21T06:36:02.128Z,61.90
2018-06-21T06:38:29.280Z,59.49
2018-06-21T06:40:56.453Z,59.34
2018-06-21T06:43:23.645Z,58.55
2018-06-21T06:45:50.833Z,57.30
2018-06-21T06:48:18.017Z,57.38
2018-06-21T06:50:45.205Z,55.90
2018-06-21T06:53:12.376Z,55.21
2018-06-21T06:55:39.528Z,55.53
2018-06-21T06:58:07.138Z,53.95
2018-06-21T07:00:34.306Z,51.68
2018-06-21T07:03:01.474Z,52.09
2018-06-21T07:05:28.753Z,53.65
2018-06-21T07:07:56.026Z,54.15
2018-06-21T07:10:23.212Z,52.52
2018-06-21T07:12:50.389Z,52.20
2018-06-21T07:15:17.573Z,53.66
2018-06-21T07:17:44.755Z,53.81
2018-06-21T07:20:11.953Z,55.12
2018-06-21T07:22:39.098Z,55.13
2018-06-21T07:25:06.280Z,55.61
2018-06-21T07:27:33.485Z,53.15
2018-06-21T07:30:00.761Z,53.70
2018-06-21T07:32:27.945Z,55.74
2018-06-21T07:34:55.107Z,55.04
2018-06-21T07:37:22.236Z,52.35
2018-06-21T07:39:49.392Z,53.06
2018-06-21T07:42:16.585Z,51.01
2018-06-21T07:44:43.732Z,51.10
2018-06-21T07:47:10.917Z,51.34
2018-06-21T07:49:38.104Z,50.49
2018-06-21T07:52:05.225Z,50.78
2018-06-21T07:54:32.417Z,51.33
2018-06-21T07:56:59.625Z,50.79
2018-06-21T07:59:26.814Z,51.14
2018-06-21T08:01:54.144Z,50.71
2018-06-21T08:04:21.328Z,52.83
2018-06-21T08:06:48.487Z,52.60
2018-06-21T08:09:15.725Z,53.46
2018-06-21T08:11:42.926Z,52.13
2018-06-21T08:14:10.116Z,52.39
2018-06-21T08:16:37.961Z,49.92
2018-06-21T08:19:05.291Z,50.74
2018-06-21T08:21:32.828Z,49.72
2018-06-21T08:24:00.019Z,49.48
2018-06-21T08:26:27.177Z,48.38
2018-06-21T08:28:54.365Z,47.58
2018-06-21T08:31:21.500Z,47.36
2018-06-21T08:33:48.692Z,47.70
2018-06-21T08:36:15.911Z,46.56
2018-06-21T08:38:43.119Z,47.28
2018-06-21T08:41:10.237Z,47.12
2018-06-21T08:43:38.158Z,46.78
2018-06-21T08:46:05.361Z,47.67
2018-06-21T08:48:32.500Z,46.71
2018-06-21T08:50:59.667Z,45.62
2018-06-21T08:53:26.869Z,45.51
2018-06-21T08:55:54.081Z,44.93
2018-06-21T08:58:21.308Z,46.44
2018-06-21T09:00:48.418Z,47.14
2018-06-21T09:03:15.569Z,47.78
2018-06-21T09:05:42.686Z,48.08
2018-06-21T09:08:09.880Z,48.41
2018-06-21T09:10:37.065Z,48.64
2018-06-21T09:13:04.229Z,48.51
2018-06-21T09:15:31.398Z,48.10
2018-06-21T09:17:58.513Z,47.96
2018-06-21T09:20:25.632Z,49.32
2018-06-21T09:22:52.814Z,48.89
2018-06-21T09:25:20.013Z,48.12
2018-06-21T09:27:47.162Z,48.64
2018-06-21T09:30:14.356Z,48.33
2018-06-21T09:32:41.580Z,46.29
2018-06-21T09:35:08.696Z,46.43
2018-06-21T09:37:41.308Z,45.87
2018-06-21T09:40:14.158Z,44.73
2018-06-21T09:42:47.030Z,45.11
2018-06-21T09:45:18.743Z,44.42
2018-06-21T09:47:51.477Z,44.67
2018-06-21T09:50:18.697Z,43.89
2018-06-21T09:52:45.949Z,42.51
2018-06-21T09:55:13.121Z,42.91
2018-06-21T09:57:40.312Z,43.57
2018-06-21T10:00:08.322Z,44.11
2018-06-21T10:02:35.500Z,43.54
2018-06-21T10:05:02.904Z,45.20
2018-06-21T10:07:30.082Z,45.37
2018-06-21T10:09:57.234Z,46.10
2018-06-21T10:12:24.366Z,45.98
2018-06-21T10:14:51.520Z,45.82
2018-06-21T10:17:18.712Z,44.62
2018-06-21T10:19:45.914Z,44.93
2018-06-21T10:22:13.060Z,43.07
2018-06-21T10:24:40.240Z,42.87
2018-06-21T10:27:07.369Z,44.97
2018-06-21T10:29:34.504Z,43.26
2018-06-21T10:32:01.644Z,44.09
2018-06-21T10:34:28.797Z,42.56
2018-06-21T10:36:55.997Z,42.70
2018-06-21T10:39:23.199Z,42.05
2018-06-21T10:41:50.417Z,42.46
2018-06-21T10:44:17.634Z,42.90
2018-06-21T10:46:44.825Z,42.83
2018-06-21T10:49:11.981Z,41.36
2018-06-21T10:51:39.169Z,39.90
2018-06-21T10:54:06.314Z,40.58
2018-06-21T10:56:33.471Z,39.41
2018-06-21T10:59:00.655Z,39.37
2018-06-21T11:01:27.963Z,40.04
2018-06-21T11:03:55.497Z,40.19
2018-06-21T11:06:23.101Z,39.44
2018-06-21T11:08:50.395Z,40.22
2018-06-21T11:11:17.581Z,40.26
2018-06-21T11:13:44.767Z,39.23
2018-06-21T11:16:11.963Z,38.94
2018-06-21T11:18:39.242Z,38.65
2018-06-21T11:21:06.425Z,38.45
2018-06-21T11:23:33.609Z,38.67
2018-06-21T11:26:00.873Z,38.30
2018-06-21T11:28:28.009Z,38.75
2018-06-21T11:30:55.145Z,37.75
2018-06-21T11:33:22.436Z,39.14
2018-06-21T11:35:49.582Z,39.74
2018-06-21T11:38:16.813Z,39.66
2018-06-21T11:40:43.960Z,40.50
2018-06-21T11:43:11.162Z,40.08
2018-06-21T11:45:38.336Z,41.30
2018-06-21T11:48:05.520Z,42.14
2018-06-21T11:50:32.807Z,42.22
2018-06-21T11:52:59.997Z,43.47
2018-06-21T11:55:27.127Z,43.04
2018-06-21T11:57:54.301Z,41.11
2018-06-21T12:00:21.514Z,37.36
2018-06-21T12:02:48.689Z,37.42
2018-06-21T12:05:15.849Z,37.70
2018-06-21T12:07:43.073Z,37.91
2018-06-21T12:10:10.252Z,36.09
2018-06-21T12:12:37.444Z,36.94
2018-06-21T12:15:04.649Z,36.87
2018-06-21T12:17:31.850Z,35.17
2018-06-21T12:19:59.018Z,36.78
2018-06-21T12:22:26.232Z,37.74
2018-06-21T12:24:53.413Z,37.88
2018-06-21T12:27:20.572Z,38.86
2018-06-21T12:29:47.706Z,37.74
2018-06-21T12:32:14.938Z,37.34
2018-06-21T12:34:42.129Z,38.39
2018-06-21T12:37:09.276Z,38.84
2018-06-21T12:39:36.442Z,37.96
2018-06-21T12:42:03.611Z,35.79
2018-06-21T12:44:30.764Z,36.82
2018-06-21T12:46:57.943Z,34.71
2018-06-21T12:49:25.066Z,34.11
2018-06-21T12:51:52.245Z,34.61
2018-06-21T12:54:19.564Z,33.68
2018-06-21T12:56:46.712Z,34.01
2018-06-21T12:59:13.946Z,32.87
2018-06-21T13:01:41.121Z,33.17
2018-06-21T13:04:08.280Z,34.90
2018-06-21T13:06:35.477Z,35.17
2018-06-21T13:10:14.722Z,33.33
2018-06-21T13:12:54.553Z,32.95
2018-06-21T13:15:21.806Z,34.48
2018-06-21T13:17:48.970Z,33.61
2018-06-21T13:20:16.185Z,34.46
2018-06-21T13:22:43.360Z,34.81
2018-06-21T13:25:10.556Z,34.37
2018-06-21T13:27:37.758Z,33.68
2018-06-21T13:30:06.752Z,33.66
2018-06-21T13:32:34.105Z,35.03
2018-06-21T13:35:01.280Z,33.54
2018-06-21T13:37:28.452Z,33.33
2018-06-21T13:39:55.632Z,34.34
2018-06-21T13:42:22.792Z,34.24
2018-06-21T13:44:49.989Z,33.83
2018-06-21T13:47:17.199Z,33.35
2018-06-21T13:49:44.400Z,33.61
2018-06-21T13:52:11.623Z,34.62
2018-06-21T13:54:38.892Z,33.77
2018-06-21T13:57:06.130Z,34.40
2018-06-21T13:59:33.247Z,33.68
2018-06-21T14:02:00.398Z,33.67
2018-06-21T14:04:27.593Z,33.86
2018-06-21T14:06:54.740Z,34.78
2018-06-21T14:09:22.009Z,34.56
2018-06-21T14:11:49.191Z,35.54
2018-06-21T14:14:16.301Z,35.58
2018-06-21T14:16:43.442Z,36.24
2018-06-21T14:19:10.686Z,38.15
2018-06-21T14:21:37.806Z,39.07
2018-06-21T14:24:10.701Z,38.74
2018-06-21T14:26:38.236Z,39.18
2018-06-21T14:29:05.434Z,41.54
2018-06-21T14:31:32.568Z,42.59
2018-06-21T14:33:59.793Z,43.30
2018-06-21T14:36:26.946Z,45.40
2018-06-21T14:38:54.148Z,49.90
2018-06-21T14:41:21.305Z,50.02
2018-06-21T14:43:49.718Z,48.46
2018-06-21T14:46:17.004Z,48.13
2018-06-21T14:48:44.262Z,50.07
2018-06-21T14:51:11.574Z,50.12
2018-06-21T14:53:39.059Z,49.38
2018-06-21T14:56:06.762Z,49.07
2018-06-21T14:58:34.046Z,48.73
2018-06-21T15:01:01.286Z,49.35
2018-06-21T15:03:28.932Z,49.86
2018-06-21T15:05:56.262Z,48.75
2018-06-21T15:08:23.539Z,48.64
2018-06-21T15:10:50.741Z,50.13
2018-06-21T15:13:17.947Z,48.50
2018-06-21T15:15:46.942Z,48.08
2018-06-21T15:18:14.120Z,48.79
2018-06-21T15:20:41.271Z,48.79
2018-06-21T15:23:08.491Z,49.30
2018-06-21T15:25:35.601Z,47.23
2018-06-21T15:28:02.793Z,49.95
2018-06-21T15:30:33.850Z,49.78
2018-06-21T15:33:01.063Z,49.90
2018-06-21T15:35:28.257Z,49.89
2018-06-21T15:37:55.429Z,49.27
2018-06-21T15:40:22.604Z,47.89
2018-06-21T15:42:49.743Z,49.17
2018-06-21T15:45:16.927Z,46.18
2018-06-21T15:47:44.134Z,46.60
2018-06-21T15:50:11.549Z,45.54
2018-06-21T15:52:38.725Z,47.37
2018-06-21T15:55:06.025Z,46.80
2018-06-21T15:57:33.313Z,46.81
2018-06-21T16:00:00.544Z,46.28
2018-06-21T16:02:27.824Z,46.59
2018-06-21T16:04:55.047Z,46.28
2018-06-21T16:07:22.201Z,46.69
2018-06-21T16:09:49.342Z,47.59
2018-06-21T16:12:18.283Z,48.18
2018-06-21T16:14:45.546Z,48.49
2018-06-21T16:17:12.804Z,48.69
2018-06-21T16:19:40.000Z,50.06
2018-06-21T16:22:07.197Z,50.67
2018-06-21T16:24:34.390Z,49.55
2018-06-21T16:27:01.566Z,49.09
2018-06-21T16:29:28.832Z,49.14
2018-06-21T16:31:56.002Z,49.75
2018-06-21T16:34:23.154Z,48.56
2018-06-21T16:36:50.330Z,48.22
2018-06-21T16:39:17.464Z,48.95
2018-06-21T16:41:44.624Z,49.44
2018-06-21T16:44:11.809Z,49.17
2018-06-21T16:46:38.955Z,49.88
2018-06-21T16:49:06.332Z,49.38
2018-06-21T16:51:33.481Z,48.75
2018-06-21T16:54:00.660Z,48.50
2018-06-21T16:56:27.872Z,48.73
2018-06-21T16:58:55.124Z,48.73
2018-06-21T17:01:22.354Z,49.52
2018-06-21T17:03:49.573Z,49.03
2018-06-21T17:06:17.015Z,50.38
2018-06-21T17:08:44.196Z,49.91
2018-06-21T17:11:14.349Z,49.41
2018-06-21T17:13:45.247Z,50.88
2018-06-21T17:16:16.151Z,47.76
2018-06-21T17:18:47.639Z,49.33
2018-06-21T17:21:17.837Z,49.45
2018-06-21T17:23:47.788Z,48.07
2018-06-21T17:26:17.822Z,47.21
2018-06-21T17:28:48.550Z,47.55
2018-06-21T17:31:15.864Z,48.58
2018-06-21T17:33:43.120Z,48.40
2018-06-21T17:36:10.461Z,49.41
2018-06-21T17:38:37.621Z,49.04
2018-06-21T17:41:04.910Z,49.00
2018-06-21T17:43:32.077Z,47.87
2018-06-21T17:45:59.276Z,47.63
2018-06-21T17:48:26.443Z,47.46
2018-06-21T17:50:53.595Z,44.36
2018-06-21T17:53:20.779Z,44.48
2018-06-21T17:55:47.908Z,43.02
2018-06-21T17:58:15.114Z,41.91
2018-06-21T18:00:42.381Z,41.74
2018-06-21T18:03:09.525Z,42.26
2018-06-21T18:05:36.911Z,41.79
2018-06-21T18:08:04.251Z,41.00
2018-06-21T18:10:31.364Z,41.48
2018-06-21T18:12:58.564Z,42.24
2018-06-21T18:15:25.754Z,41.70
2018-06-21T18:17:52.920Z,41.68
2018-06-21T18:20:20.122Z,40.52
2018-06-21T18:22:47.327Z,42.23
2018-06-21T18:25:14.470Z,41.33
2018-06-21T18:27:41.670Z,41.40
2018-06-21T18:30:08.844Z,40.81
2018-06-21T18:32:36.007Z,41.83
2018-06-21T18:35:03.352Z,41.42
2018-06-21T18:37:30.481Z,40.76
2018-06-21T18:39:57.633Z,40.94
2018-06-21T18:42:31.547Z,39.59
2018-06-21T18:44:59.008Z,39.25
2018-06-21T18:47:26.227Z,39.71
2018-06-21T18:49:53.382Z,39.60
2018-06-21T18:52:20.581Z,39.03
2018-06-21T18:54:47.721Z,38.98
2018-06-21T18:57:14.914Z,38.82
2018-06-21T18:59:42.026Z,38.92
2018-06-21T19:02:09.258Z,37.74
2018-06-21T19:04:36.438Z,38.65
2018-06-21T19:07:09.504Z,38.29
2018-06-21T19:09:42.210Z,38.38
2018-06-21T19:12:09.705Z,37.95
2018-06-21T19:14:37.784Z,37.10
2018-06-21T19:17:05.059Z,37.39
2018-06-21T19:19:32.246Z,38.36
2018-06-21T19:21:59.432Z,38.28
2018-06-21T19:24:26.565Z,39.16
2018-06-21T19:26:53.787Z,38.36
2018-06-21T19:29:20.953Z,38.16
2018-06-21T19:31:48.142Z,38.69
2018-06-21T19:34:15.624Z,38.13
2018-06-21T19:36:42.828Z,37.39
2018-06-21T19:39:10.691Z,37.83
2018-06-21T19:41:38.414Z,38.26
2018-06-21T19:44:05.938Z,38.03
2018-06-21T19:46:33.047Z,38.62
2018-06-21T19:49:00.214Z,38.58
2018-06-21T19:51:27.413Z,38.10
2018-06-21T19:53:54.613Z,38.75
2018-06-21T19:56:21.948Z,37.99
2018-06-21T19:58:49.117Z,37.89
2018-06-21T20:01:16.399Z,37.89
2018-06-21T20:03:43.523Z,38.34
2018-06-21T20:06:10.787Z,39.11
2018-06-21T20:08:38.036Z,39.80
2018-06-21T20:11:10.718Z,39.76
2018-06-21T20:13:46.015Z,39.12
2018-06-21T20:16:13.234Z,39.21
2018-06-21T20:18:40.403Z,39.36
2018-06-21T20:21:11.444Z,39.58
2018-06-21T20:23:50.154Z,39.40
2018-06-21T20:26:18.044Z,39.90
2018-06-21T20:28:45.206Z,40.49
2018-06-21T20:31:13.771Z,39.63
2018-06-21T20:33:42.324Z,40.07
2018-06-21T20:36:09.719Z,40.00
2018-06-21T20:38:36.901Z,40.10
2018-06-21T20:41:04.579Z,40.13
2018-06-21T20:43:31.808Z,40.41
2018-06-21T20:45:59.342Z,40.64
2018-06-21T20:48:26.548Z,40.64
2018-06-21T20:50:53.741Z,40.57
2018-06-21T20:53:20.960Z,41.23
2018-06-21T20:55:48.090Z,40.76
2018-06-21T20:58:15.173Z,41.25
2018-06-21T21:00:42.353Z,41.34
2018-06-21T21:03:09.729Z,41.58
2018-06-21T21:05:36.895Z,41.48
2018-06-21T21:08:04.101Z,41.80
2018-06-21T21:10:31.336Z,41.76
2018-06-21T21:12:58.512Z,41.80
2018-06-21T21:15:25.647Z,41.83
2018-06-21T21:17:52.796Z,42.07
2018-06-21T21:20:19.927Z,41.80
2018-06-21T21:22:47.074Z,42.07
2018-06-21T21:25:14.218Z,42.37
2018-06-21T21:27:41.414Z,42.71
2018-06-21T21:30:09.081Z,42.58
2018-06-21T21:32:36.223Z,42.96
2018-06-21T21:35:03.713Z,43.04
2018-06-21T21:37:30.871Z,43.50
2018-06-21T21:40:05.545Z,43.23
2018-06-21T21:42:33.880Z,43.66
2018-06-21T21:45:01.048Z,43.87
2018-06-21T21:47:28.227Z,43.98
2018-06-21T21:49:55.613Z,44.03
2018-06-21T21:52:22.884Z,44.36
2018-06-21T21:54:50.033Z,44.73
2018-06-21T21:57:17.324Z,45.05
2018-06-21T21:59:44.805Z,45.48
2018-06-21T22:02:11.923Z,44.78
2018-06-21T22:04:39.052Z,45.54
2018-06-21T22:07:06.197Z,45.93
2018-06-21T22:09:33.349Z,46.87
2018-06-21T22:12:00.492Z,46.51
2018-06-21T22:14:27.629Z,46.83
2018-06-21T22:16:54.773Z,46.13
2018-06-21T22:19:22.015Z,46.31
2018-06-21T22:21:49.188Z,45.95
2018-06-21T22:24:16.324Z,46.06
2018-06-21T22:26:43.429Z,44.62
2018-06-21T22:29:10.596Z,45.76
2018-06-21T22:31:37.692Z,45.88
2018-06-21T22:34:05.068Z,45.38
2018-06-21T22:36:32.298Z,44.99
2018-06-21T22:38:59.478Z,44.95
2018-06-21T22:41:26.596Z,44.70
2018-06-21T22:43:53.761Z,44.95
2018-06-21T22:46:20.897Z,45.66
2018-06-21T22:48:48.017Z,44.94
2018-06-21T22:51:15.170Z,44.98
2018-06-21T22:53:42.297Z,45.60
2018-06-21T22:56:09.447Z,45.29
2018-06-21T22:58:36.595Z,45.60
2018-06-21T23:01:03.693Z,45.77
2018-06-21T23:03:30.888Z,46.05
2018-06-21T23:05:58.009Z,45.81
2018-06-21T23:08:25.182Z,46.65
2018-06-21T23:10:52.333Z,46.25
2018-06-21T23:13:19.536Z,45.62
2018-06-21T23:15:46.652Z,45.51
2018-06-21T23:18:23.974Z,45.62
2018-06-21T23:20:51.093Z,46.10
2018-06-21T23:23:18.237Z,46.07
2018-06-21T23:25:45.377Z,47.29
2018-06-21T23:28:12.548Z,46.95
2018-06-21T23:30:39.693Z,46.80
2018-06-21T23:33:06.832Z,47.38
2018-06-21T23:35:33.962Z,48.57
2018-06-21T23:38:01.132Z,49.38
2018-06-21T23:40:28.325Z,49.77
2018-06-21T23:42:55.443Z,48.85
2018-06-21T23:45:22.544Z,49.31
2018-06-21T23:47:49.743Z,49.95
2018-06-21T23:50:16.857Z,50.64
2018-06-21T23:52:44.024Z,51.13
2018-06-21T23:55:11.172Z,51.11
2018-06-21T23:57:38.297Z,51.47
